Aviation Digital Data Service (ADDS)

Output produced by METARs form (1959 UTC 25 February 2018)
found at http://aviationweather.gov/adds/metars/
 
Forecast for: RODN (KADENA (USAFB-NA, JP)
Text: TAF AMD RODN 251933Z 2519/2622 35012G18KT 9999 BKN030 QNH3000INS
Forecast period: 1900 UTC 25 February 2018 to 0800 UTC 26 February 2018
Forecast type: FROM: standard forecast or significant change
Winds: from the N (350 degrees) at 14 MPH (12 knots; 6.2 m/s)
gusting to 21 MPH (18 knots; 9.4 m/s)
Visibility: 6 or more miles (10+ km)
Ceiling: 3000 feet AGL
Clouds: broken clouds at 3000 feet AGL
Weather: no significant weather forecast for this period
Text: TEMPO 2519/2522 8000 -SHRA BKN018
Forecast period: 1900 to 2200 UTC 25 February 2018
Forecast type: TEMPORARY: The following changes expected for less than half the time period
Visibility: 5 miles (8 km)
Ceiling: 1800 feet AGL
Clouds: broken clouds at 1800 feet AGL
Weather: -SHRA  (light rain showers)
Text: BECMG 2608/2609 03012KT 9999 SCT035 QNH3010INS TX20/2604Z TN17/2519Z
Forecast period: 0800 to 2200 UTC 26 February 2018
Forecast type: BECOMING: Conditions expected to become as follows by 0900 UTC 26 February 2018
Winds: from the NNE (30 degrees) at 14 MPH (12 knots; 6.2 m/s)
Visibility: 6 or more miles (10+ km)
Clouds: scattered clouds at 3500 feet AGL
Weather: no significant weather forecast for this period